sensor_id;sensor_type;location;lat;lon;timestamp;pressure;altitude;pressure_sealevel;temperature;humidity
7182;BME280;3632;42.724;23.298;2023-06-04T00:00:49;95517.56;;;18.20;100.00
7182;BME280;3632;42.724;23.298;2023-06-04T00:03:16;95074.53;;;15.07;100.00
7182;BME280;3632;42.724;23.298;2023-06-04T00:05:42;95524.00;;;18.08;100.00
7182;BME280;3632;42.724;23.298;2023-06-04T00:08:09;95539.88;;;17.63;100.00
7182;BME280;3632;42.724;23.298;2023-06-04T00:10:36;95519.97;;;18.22;100.00
7182;BME280;3632;42.724;23.298;2023-06-04T00:13:05;95512.91;;;18.24;100.00
7182;BME280;3632;42.724;23.298;2023-06-04T00:15:31;95510.63;;;18.29;100.00
7182;BME280;3632;42.724;23.298;2023-06-04T00:18:00;95515.00;;;18.29;100.00
7182;BME280;3632;42.724;23.298;2023-06-04T00:20:26;95473.84;;;17.78;100.00
7182;BME280;3632;42.724;23.298;2023-06-04T00:22:53;95512.56;;;18.35;100.00
7182;BME280;3632;42.724;23.298;2023-06-04T00:25:20;95074.19;;;15.02;100.00
7182;BME280;3632;42.724;23.298;2023-06-04T00:27:47;95505.78;;;18.26;100.00
7182;BME280;3632;42.724;23.298;2023-06-04T00:30:14;95456.44;;;17.97;100.00
7182;BME280;3632;42.724;23.298;2023-06-04T00:32:40;95369.53;;;17.41;100.00
7182;BME280;3632;42.724;23.298;2023-06-04T00:35:09;95500.47;;;18.19;100.00
7182;BME280;3632;42.724;23.298;2023-06-04T00:37:35;95503.06;;;18.27;100.00
7182;BME280;3632;42.724;23.298;2023-06-04T00:40:02;95521.44;;;18.24;100.00
7182;BME280;3632;42.724;23.298;2023-06-04T00:42:30;95443.75;;;17.37;100.00
7182;BME280;3632;42.724;23.298;2023-06-04T00:44:57;95503.22;;;18.18;100.00
7182;BME280;3632;42.724;23.298;2023-06-04T00:47:24;95356.16;;;17.29;100.00
7182;BME280;3632;42.724;23.298;2023-06-04T00:49:56;95501.78;;;18.23;100.00
7182;BME280;3632;42.724;23.298;2023-06-04T00:52:25;95497.72;;;18.21;100.00
7182;BME280;3632;42.724;23.298;2023-06-04T00:54:52;95505.16;;;18.16;100.00
7182;BME280;3632;42.724;23.298;2023-06-04T00:57:20;95490.66;;;18.23;100.00
7182;BME280;3632;42.724;23.298;2023-06-04T00:59:48;95496.44;;;18.17;100.00
7182;BME280;3632;42.724;23.298;2023-06-04T01:02:17;95499.66;;;18.27;100.00
7182;BME280;3632;42.724;23.298;2023-06-04T01:04:51;95550.09;;;17.89;100.00
7182;BME280;3632;42.724;23.298;2023-06-04T01:07:19;95497.72;;;18.05;100.00
7182;BME280;3632;42.724;23.298;2023-06-04T01:09:47;95487.88;;;17.92;100.00
7182;BME280;3632;42.724;23.298;2023-06-04T01:12:14;95455.41;;;17.57;100.00
7182;BME280;3632;42.724;23.298;2023-06-04T01:14:41;95494.66;;;17.93;100.00
7182;BME280;3632;42.724;23.298;2023-06-04T01:17:15;95496.91;;;18.04;100.00
7182;BME280;3632;42.724;23.298;2023-06-04T01:20:01;95495.94;;;18.05;100.00
7182;BME280;3632;42.724;23.298;2023-06-04T01:22:35;95492.22;;;18.00;100.00
7182;BME280;3632;42.724;23.298;2023-06-04T01:25:07;95495.94;;;18.13;100.00
7182;BME280;3632;42.724;23.298;2023-06-04T01:27:37;95364.50;;;17.15;100.00
7182;BME280;3632;42.724;23.298;2023-06-04T01:30:07;95480.78;;;17.86;100.00
7182;BME280;3632;42.724;23.298;2023-06-04T01:32:34;95502.38;;;17.93;100.00
7182;BME280;3632;42.724;23.298;2023-06-04T01:35:01;95505.44;;;17.80;100.00
7182;BME280;3632;42.724;23.298;2023-06-04T01:37:28;95507.88;;;17.82;100.00
7182;BME280;3632;42.724;23.298;2023-06-04T01:39:54;95507.69;;;17.92;100.00
7182;BME280;3632;42.724;23.298;2023-06-04T01:42:23;95515.78;;;17.97;100.00
7182;BME280;3632;42.724;23.298;2023-06-04T01:44:49;95512.50;;;17.87;100.00
7182;BME280;3632;42.724;23.298;2023-06-04T01:47:16;95510.63;;;18.05;100.00
7182;BME280;3632;42.724;23.298;2023-06-04T01:49:43;95510.13;;;18.09;100.00
7182;BME280;3632;42.724;23.298;2023-06-04T01:52:09;95538.03;;;18.14;100.00
7182;BME280;3632;42.724;23.298;2023-06-04T01:54:37;95511.91;;;18.17;100.00
7182;BME280;3632;42.724;23.298;2023-06-04T01:57:04;95516.44;;;18.15;100.00
7182;BME280;3632;42.724;23.298;2023-06-04T01:59:33;95463.41;;;17.30;100.00
7182;BME280;3632;42.724;23.298;2023-06-04T02:02:01;95519.97;;;18.14;100.00
7182;BME280;3632;42.724;23.298;2023-06-04T02:04:29;95525.81;;;18.16;100.00
7182;BME280;3632;42.724;23.298;2023-06-04T02:06:55;95475.16;;;17.91;100.00
7182;BME280;3632;42.724;23.298;2023-06-04T02:09:24;95519.66;;;18.25;100.00
7182;BME280;3632;42.724;23.298;2023-06-04T02:11:51;95535.13;;;18.09;100.00
7182;BME280;3632;42.724;23.298;2023-06-04T02:14:18;95531.22;;;17.80;100.00
7182;BME280;3632;42.724;23.298;2023-06-04T02:16:46;95528.03;;;18.03;100.00
7182;BME280;3632;42.724;23.298;2023-06-04T02:19:15;95536.41;;;18.13;100.00
7182;BME280;3632;42.724;23.298;2023-06-04T02:21:44;95535.78;;;18.19;100.00
7182;BME280;3632;42.724;23.298;2023-06-04T02:24:10;95558.06;;;18.20;100.00
7182;BME280;3632;42.724;23.298;2023-06-04T02:26:37;95445.06;;;17.49;100.00
7182;BME280;3632;42.724;23.298;2023-06-04T02:29:04;95541.88;;;17.94;100.00
7182;BME280;3632;42.724;23.298;2023-06-04T02:31:31;95146.16;;;15.44;100.00
7182;BME280;3632;42.724;23.298;2023-06-04T02:33:59;95525.59;;;17.93;100.00
7182;BME280;3632;42.724;23.298;2023-06-04T02:36:26;95549.97;;;18.07;100.00
7182;BME280;3632;42.724;23.298;2023-06-04T02:38:53;95332.50;;;16.67;100.00
7182;BME280;3632;42.724;23.298;2023-06-04T02:41:21;95557.19;;;17.95;100.00
7182;BME280;3632;42.724;23.298;2023-06-04T02:43:48;95556.22;;;17.96;100.00
7182;BME280;3632;42.724;23.298;2023-06-04T02:46:15;95530.47;;;17.54;100.00
7182;BME280;3632;42.724;23.298;2023-06-04T02:48:41;95562.72;;;17.58;100.00
7182;BME280;3632;42.724;23.298;2023-06-04T02:51:10;95573.13;;;17.49;100.00
7182;BME280;3632;42.724;23.298;2023-06-04T02:53:37;95573.56;;;17.44;100.00
7182;BME280;3632;42.724;23.298;2023-06-04T02:56:04;95408.53;;;16.36;100.00
7182;BME280;3632;42.724;23.298;2023-06-04T02:58:31;95521.38;;;17.00;100.00
7182;BME280;3632;42.724;23.298;2023-06-04T03:01:05;95574.84;;;17.40;100.00
7182;BME280;3632;42.724;23.298;2023-06-04T03:03:33;95572.06;;;17.59;100.00
7182;BME280;3632;42.724;23.298;2023-06-04T03:05:59;95578.25;;;17.74;100.00
7182;BME280;3632;42.724;23.298;2023-06-04T03:08:28;95578.38;;;17.65;100.00
7182;BME280;3632;42.724;23.298;2023-06-04T03:10:56;95584.25;;;17.57;100.00
7182;BME280;3632;42.724;23.298;2023-06-04T03:13:22;95483.09;;;16.28;100.00
7182;BME280;3632;42.724;23.298;2023-06-04T03:15:49;95570.47;;;17.66;100.00
7182;BME280;3632;42.724;23.298;2023-06-04T03:18:16;95575.97;;;17.63;100.00
7182;BME280;3632;42.724;23.298;2023-06-04T03:20:43;95492.69;;;17.29;100.00
7182;BME280;3632;42.724;23.298;2023-06-04T03:23:10;95676.31;;;17.91;100.00
7182;BME280;3632;42.724;23.298;2023-06-04T03:25:38;95577.66;;;17.97;100.00
7182;BME280;3632;42.724;23.298;2023-06-04T03:28:05;95171.50;;;14.95;100.00
7182;BME280;3632;42.724;23.298;2023-06-04T03:30:32;95550.28;;;17.20;100.00
7182;BME280;3632;42.724;23.298;2023-06-04T03:32:59;95582.69;;;18.06;100.00
7182;BME280;3632;42.724;23.298;2023-06-04T03:35:26;95605.72;;;18.08;100.00
7182;BME280;3632;42.724;23.298;2023-06-04T03:37:52;95591.59;;;18.28;100.00
7182;BME280;3632;42.724;23.298;2023-06-04T03:40:19;95410.47;;;17.02;100.00
7182;BME280;3632;42.724;23.298;2023-06-04T03:42:47;95586.81;;;17.83;100.00
7182;BME280;3632;42.724;23.298;2023-06-04T03:45:14;95587.09;;;17.72;100.00
7182;BME280;3632;42.724;23.298;2023-06-04T03:47:41;95590.53;;;17.89;100.00
7182;BME280;3632;42.724;23.298;2023-06-04T03:50:08;95600.41;;;18.01;100.00
7182;BME280;3632;42.724;23.298;2023-06-04T03:52:35;95602.22;;;17.67;100.00
7182;BME280;3632;42.724;23.298;2023-06-04T03:55:02;95606.59;;;17.74;100.00
7182;BME280;3632;42.724;23.298;2023-06-04T03:57:29;95500.69;;;16.58;100.00
7182;BME280;3632;42.724;23.298;2023-06-04T03:59:57;95117.31;;;14.98;100.00
7182;BME280;3632;42.724;23.298;2023-06-04T04:02:24;95596.78;;;17.44;100.00
7182;BME280;3632;42.724;23.298;2023-06-04T04:04:51;95611.25;;;17.71;100.00
7182;BME280;3632;42.724;23.298;2023-06-04T04:07:19;95349.78;;;15.19;100.00
7182;BME280;3632;42.724;23.298;2023-06-04T04:09:46;95616.31;;;17.55;100.00
7182;BME280;3632;42.724;23.298;2023-06-04T04:12:13;95607.53;;;17.65;100.00
7182;BME280;3632;42.724;23.298;2023-06-04T04:14:40;95596.63;;;17.79;100.00
7182;BME280;3632;42.724;23.298;2023-06-04T04:17:08;95611.22;;;18.05;100.00
7182;BME280;3632;42.724;23.298;2023-06-04T04:19:35;95261.50;;;15.81;100.00
7182;BME280;3632;42.724;23.298;2023-06-04T04:22:02;95614.16;;;18.26;100.00
7182;BME280;3632;42.724;23.298;2023-06-04T04:24:29;95610.63;;;18.35;100.00
7182;BME280;3632;42.724;23.298;2023-06-04T04:26:57;95563.16;;;18.04;100.00
7182;BME280;3632;42.724;23.298;2023-06-04T04:29:24;95608.88;;;18.44;100.00
7182;BME280;3632;42.724;23.298;2023-06-04T04:31:51;95611.34;;;18.53;100.00
7182;BME280;3632;42.724;23.298;2023-06-04T04:34:20;95618.09;;;18.54;100.00
7182;BME280;3632;42.724;23.298;2023-06-04T04:36:47;95615.53;;;18.62;100.00
7182;BME280;3632;42.724;23.298;2023-06-04T04:39:17;95596.28;;;18.49;100.00
7182;BME280;3632;42.724;23.298;2023-06-04T04:41:44;95483.34;;;17.28;100.00
7182;BME280;3632;42.724;23.298;2023-06-04T04:44:11;95615.84;;;18.59;100.00
7182;BME280;3632;42.724;23.298;2023-06-04T04:46:38;95365.88;;;16.93;100.00
7182;BME280;3632;42.724;23.298;2023-06-04T04:49:04;95578.06;;;18.42;100.00
7182;BME280;3632;42.724;23.298;2023-06-04T04:51:32;95615.22;;;18.65;100.00
7182;BME280;3632;42.724;23.298;2023-06-04T04:53:59;95501.59;;;18.01;100.00
7182;BME280;3632;42.724;23.298;2023-06-04T04:56:26;95643.63;;;18.90;100.00
7182;BME280;3632;42.724;23.298;2023-06-04T04:58:53;95622.78;;;18.91;100.00
7182;BME280;3632;42.724;23.298;2023-06-04T05:01:21;95584.22;;;18.65;100.00
7182;BME280;3632;42.724;23.298;2023-06-04T05:03:49;95544.69;;;18.33;100.00
7182;BME280;3632;42.724;23.298;2023-06-04T05:06:16;95623.75;;;18.82;100.00
7182;BME280;3632;42.724;23.298;2023-06-04T05:08:44;95625.38;;;18.91;100.00
7182;BME280;3632;42.724;23.298;2023-06-04T05:11:10;95289.13;;;16.13;100.00
7182;BME280;3632;42.724;23.298;2023-06-04T05:13:37;95630.88;;;18.96;100.00
7182;BME280;3632;42.724;23.298;2023-06-04T05:16:04;95343.03;;;16.56;100.00
7182;BME280;3632;42.724;23.298;2023-06-04T05:18:31;95726.44;;;19.04;100.00
7182;BME280;3632;42.724;23.298;2023-06-04T05:20:59;95635.69;;;19.07;98.98
7182;BME280;3632;42.724;23.298;2023-06-04T05:23:28;95621.16;;;18.50;99.00
7182;BME280;3632;42.724;23.298;2023-06-04T05:25:56;95634.38;;;19.20;98.24
7182;BME280;3632;42.724;23.298;2023-06-04T05:28:23;95288.78;;;16.75;96.89
7182;BME280;3632;42.724;23.298;2023-06-04T05:30:51;95623.91;;;19.21;96.65
7182;BME280;3632;42.724;23.298;2023-06-04T05:33:24;95638.41;;;19.30;96.05
7182;BME280;3632;42.724;23.298;2023-06-04T05:35:51;95632.28;;;19.23;95.35
7182;BME280;3632;42.724;23.298;2023-06-04T05:38:19;95643.91;;;19.27;95.50
7182;BME280;3632;42.724;23.298;2023-06-04T05:40:51;95638.06;;;19.41;96.71
7182;BME280;3632;42.724;23.298;2023-06-04T05:43:20;95645.22;;;19.15;95.81
7182;BME280;3632;42.724;23.298;2023-06-04T05:45:48;95645.19;;;19.31;96.95
7182;BME280;3632;42.724;23.298;2023-06-04T05:48:15;95645.81;;;19.41;96.84
7182;BME280;3632;42.724;23.298;2023-06-04T05:50:42;95643.56;;;19.38;93.68
7182;BME280;3632;42.724;23.298;2023-06-04T05:53:09;95647.94;;;19.46;94.13
7182;BME280;3632;42.724;23.298;2023-06-04T05:55:36;95607.09;;;19.25;94.18
7182;BME280;3632;42.724;23.298;2023-06-04T05:58:02;95536.75;;;18.91;92.83
7182;BME280;3632;42.724;23.298;2023-06-04T06:00:31;95462.69;;;18.51;93.84
7182;BME280;3632;42.724;23.298;2023-06-04T06:02:58;95671.31;;;19.77;92.77
7182;BME280;3632;42.724;23.298;2023-06-04T06:05:24;95674.69;;;19.77;92.00
7182;BME280;3632;42.724;23.298;2023-06-04T06:07:51;95220.59;;;16.79;90.65
7182;BME280;3632;42.724;23.298;2023-06-04T06:10:18;95340.91;;;17.60;92.60
7182;BME280;3632;42.724;23.298;2023-06-04T06:12:45;95498.72;;;18.28;92.33
7182;BME280;3632;42.724;23.298;2023-06-04T06:15:12;95318.00;;;17.24;93.93
7182;BME280;3632;42.724;23.298;2023-06-04T06:17:40;95668.91;;;19.67;93.55
7182;BME280;3632;42.724;23.298;2023-06-04T06:20:07;95220.84;;;16.60;93.24
7182;BME280;3632;42.724;23.298;2023-06-04T06:22:34;95662.72;;;19.76;91.95
7182;BME280;3632;42.724;23.298;2023-06-04T06:25:02;95679.53;;;19.80;90.73
7182;BME280;3632;42.724;23.298;2023-06-04T06:27:31;95682.28;;;19.79;90.62
7182;BME280;3632;42.724;23.298;2023-06-04T06:29:57;95666.72;;;19.87;90.00
7182;BME280;3632;42.724;23.298;2023-06-04T06:32:25;95672.84;;;19.94;88.90
7182;BME280;3632;42.724;23.298;2023-06-04T06:34:54;95673.63;;;20.02;89.10
7182;BME280;3632;42.724;23.298;2023-06-04T06:37:21;95580.69;;;18.83;88.62
7182;BME280;3632;42.724;23.298;2023-06-04T06:39:47;95671.13;;;20.17;88.27
7182;BME280;3632;42.724;23.298;2023-06-04T06:42:14;95584.91;;;19.55;89.19
7182;BME280;3632;42.724;23.298;2023-06-04T06:44:42;95668.94;;;20.06;89.95
7182;BME280;3632;42.724;23.298;2023-06-04T06:47:09;95622.16;;;19.77;88.59
7182;BME280;3632;42.724;23.298;2023-06-04T06:49:38;95270.19;;;17.30;88.69
7182;BME280;3632;42.724;23.298;2023-06-04T06:52:07;95678.22;;;20.31;86.10
7182;BME280;3632;42.724;23.298;2023-06-04T06:54:33;95675.06;;;20.44;89.73
7182;BME280;3632;42.724;23.298;2023-06-04T06:57:00;95676.19;;;20.49;86.92
7182;BME280;3632;42.724;23.298;2023-06-04T06:59:28;95639.84;;;20.35;86.59
7182;BME280;3632;42.724;23.298;2023-06-04T07:01:55;95674.84;;;20.76;85.77
7182;BME280;3632;42.724;23.298;2023-06-04T07:04:21;95596.03;;;20.25;84.12
7182;BME280;3632;42.724;23.298;2023-06-04T07:06:48;95660.47;;;20.74;84.60
7182;BME280;3632;42.724;23.298;2023-06-04T07:09:16;95682.56;;;20.84;85.67
7182;BME280;3632;42.724;23.298;2023-06-04T07:11:43;95687.06;;;20.90;85.12
7182;BME280;3632;42.724;23.298;2023-06-04T07:14:10;95689.06;;;21.03;86.19
7182;BME280;3632;42.724;23.298;2023-06-04T07:16:37;95609.47;;;20.51;84.40
7182;BME280;3632;42.724;23.298;2023-06-04T07:19:03;95697.09;;;21.16;84.67
7182;BME280;3632;42.724;23.298;2023-06-04T07:21:30;95699.34;;;21.19;84.11
7182;BME280;3632;42.724;23.298;2023-06-04T07:23:57;95701.81;;;20.90;83.84
7182;BME280;3632;42.724;23.298;2023-06-04T07:26:25;95702.09;;;20.95;82.63
7182;BME280;3632;42.724;23.298;2023-06-04T07:28:55;95707.81;;;21.13;82.30
7182;BME280;3632;42.724;23.298;2023-06-04T07:31:22;95699.56;;;20.87;83.16
7182;BME280;3632;42.724;23.298;2023-06-04T07:33:49;95709.69;;;20.96;82.92
7182;BME280;3632;42.724;23.298;2023-06-04T07:36:16;95704.91;;;21.08;83.62
7182;BME280;3632;42.724;23.298;2023-06-04T07:38:43;95701.41;;;21.24;83.94
7182;BME280;3632;42.724;23.298;2023-06-04T07:41:10;95707.19;;;21.34;82.70
7182;BME280;3632;42.724;23.298;2023-06-04T07:43:38;95710.66;;;21.56;81.61
7182;BME280;3632;42.724;23.298;2023-06-04T07:46:05;95392.34;;;19.66;80.45
7182;BME280;3632;42.724;23.298;2023-06-04T07:48:32;95714.19;;;21.63;79.53
7182;BME280;3632;42.724;23.298;2023-06-04T07:51:00;95712.50;;;21.84;79.22
7182;BME280;3632;42.724;23.298;2023-06-04T07:53:27;95718.56;;;21.77;78.47
7182;BME280;3632;42.724;23.298;2023-06-04T07:55:54;95729.13;;;21.61;78.06
7182;BME280;3632;42.724;23.298;2023-06-04T07:58:21;95718.94;;;21.74;79.97
7182;BME280;3632;42.724;23.298;2023-06-04T08:00:49;95357.59;;;19.45;78.23
7182;BME280;3632;42.724;23.298;2023-06-04T08:03:17;95576.59;;;21.12;79.85
7182;BME280;3632;42.724;23.298;2023-06-04T08:05:45;95721.44;;;21.82;77.33
7182;BME280;3632;42.724;23.298;2023-06-04T08:08:12;95723.97;;;21.75;78.72
7182;BME280;3632;42.724;23.298;2023-06-04T08:10:39;95744.47;;;21.85;78.88
7182;BME280;3632;42.724;23.298;2023-06-04T08:13:07;95724.59;;;22.07;79.15
7182;BME280;3632;42.724;23.298;2023-06-04T08:15:35;95728.78;;;22.37;79.50
7182;BME280;3632;42.724;23.298;2023-06-04T08:18:03;95281.34;;;19.41;76.14
7182;BME280;3632;42.724;23.298;2023-06-04T08:20:30;95714.69;;;22.61;74.60
7182;BME280;3632;42.724;23.298;2023-06-04T08:22:58;95216.97;;;19.54;74.48
7182;BME280;3632;42.724;23.298;2023-06-04T08:25:25;95731.75;;;22.85;75.65
7182;BME280;3632;42.724;23.298;2023-06-04T08:27:52;95702.22;;;22.71;74.30
7182;BME280;3632;42.724;23.298;2023-06-04T08:30:18;95722.56;;;23.03;73.11
7182;BME280;3632;42.724;23.298;2023-06-04T08:32:45;95735.44;;;22.90;76.22
7182;BME280;3632;42.724;23.298;2023-06-04T08:35:13;95732.63;;;22.92;73.99
7182;BME280;3632;42.724;23.298;2023-06-04T08:37:40;95509.63;;;21.60;74.29
7182;BME280;3632;42.724;23.298;2023-06-04T08:40:08;95392.31;;;20.78;72.88
7182;BME280;3632;42.724;23.298;2023-06-04T08:42:38;95734.75;;;22.82;72.95
7182;BME280;3632;42.724;23.298;2023-06-04T08:45:10;95673.59;;;22.50;71.76
7182;BME280;3632;42.724;23.298;2023-06-04T08:47:37;95724.69;;;22.43;73.62
7182;BME280;3632;42.724;23.298;2023-06-04T08:50:09;95282.78;;;19.44;71.78
7182;BME280;3632;42.724;23.298;2023-06-04T08:52:38;95761.53;;;22.82;73.61
7182;BME280;3632;42.724;23.298;2023-06-04T08:55:08;95354.53;;;19.87;71.78
7182;BME280;3632;42.724;23.298;2023-06-04T08:57:35;95261.53;;;19.11;69.94
7182;BME280;3632;42.724;23.298;2023-06-04T09:00:03;95754.06;;;21.99;72.51
7182;BME280;3632;42.724;23.298;2023-06-04T09:02:33;95698.50;;;21.56;74.59
7182;BME280;3632;42.724;23.298;2023-06-04T09:05:03;95856.06;;;21.85;74.57
7182;BME280;3632;42.724;23.298;2023-06-04T09:07:35;95260.25;;;18.84;76.76
7182;BME280;3632;42.724;23.298;2023-06-04T09:10:04;95758.09;;;22.31;75.54
7182;BME280;3632;42.724;23.298;2023-06-04T09:12:36;95748.69;;;22.45;74.87
7182;BME280;3632;42.724;23.298;2023-06-04T09:15:06;95756.13;;;22.33;74.67
7182;BME280;3632;42.724;23.298;2023-06-04T09:17:33;95698.31;;;21.95;75.11
7182;BME280;3632;42.724;23.298;2023-06-04T09:20:00;95437.84;;;20.43;76.22
7182;BME280;3632;42.724;23.298;2023-06-04T09:22:33;95317.03;;;19.69;74.20
7182;BME280;3632;42.724;23.298;2023-06-04T09:25:01;95764.63;;;22.12;73.33
7182;BME280;3632;42.724;23.298;2023-06-04T09:27:37;95751.38;;;22.07;74.42
7182;BME280;3632;42.724;23.298;2023-06-04T09:30:06;95567.19;;;21.11;74.50
7182;BME280;3632;42.724;23.298;2023-06-04T09:32:33;95716.19;;;22.19;75.66
7182;BME280;3632;42.724;23.298;2023-06-04T09:35:09;95679.44;;;22.01;74.12
7182;BME280;3632;42.724;23.298;2023-06-04T09:37:36;95326.44;;;19.99;72.49
7182;BME280;3632;42.724;23.298;2023-06-04T09:40:04;95805.09;;;22.51;70.83
7182;BME280;3632;42.724;23.298;2023-06-04T09:42:43;95750.25;;;22.75;71.55
7182;BME280;3632;42.724;23.298;2023-06-04T09:45:10;95801.50;;;22.81;71.97
7182;BME280;3632;42.724;23.298;2023-06-04T09:47:41;95736.28;;;22.76;68.34
7182;BME280;3632;42.724;23.298;2023-06-04T09:50:10;95532.41;;;21.06;71.88
7182;BME280;3632;42.724;23.298;2023-06-04T09:52:37;95749.56;;;23.02;69.10
7182;BME280;3632;42.724;23.298;2023-06-04T09:55:15;95752.06;;;23.38;69.83
7182;BME280;3632;42.724;23.298;2023-06-04T09:57:48;95747.53;;;23.68;69.41
7182;BME280;3632;42.724;23.298;2023-06-04T10:00:17;95731.66;;;23.84;65.00
7182;BME280;3632;42.724;23.298;2023-06-04T10:02:44;95751.50;;;23.64;68.93
7182;BME280;3632;42.724;23.298;2023-06-04T10:05:13;95750.53;;;23.93;67.34
7182;BME280;3632;42.724;23.298;2023-06-04T10:07:41;95364.25;;;21.68;63.69
7182;BME280;3632;42.724;23.298;2023-06-04T10:10:20;95734.53;;;24.02;67.93
7182;BME280;3632;42.724;23.298;2023-06-04T10:12:52;95521.72;;;22.95;64.24
7182;BME280;3632;42.724;23.298;2023-06-04T10:15:21;95721.53;;;24.37;63.81
7182;BME280;3632;42.724;23.298;2023-06-04T10:17:48;95725.66;;;24.72;65.42
7182;BME280;3632;42.724;23.298;2023-06-04T10:20:17;95737.63;;;25.08;62.65
7182;BME280;3632;42.724;23.298;2023-06-04T10:22:48;95741.31;;;24.72;61.27
7182;BME280;3632;42.724;23.298;2023-06-04T10:25:15;95739.16;;;24.35;63.72
7182;BME280;3632;42.724;23.298;2023-06-04T10:27:42;95741.72;;;24.22;61.48
7182;BME280;3632;42.724;23.298;2023-06-04T10:30:11;95740.84;;;24.55;66.50
7182;BME280;3632;42.724;23.298;2023-06-04T10:32:39;95726.44;;;24.66;63.65
7182;BME280;3632;42.724;23.298;2023-06-04T10:35:07;95602.00;;;24.14;62.18
7182;BME280;3632;42.724;23.298;2023-06-04T10:37:35;95703.78;;;24.60;60.69
7182;BME280;3632;42.724;23.298;2023-06-04T10:40:02;95729.75;;;24.40;63.26
7182;BME280;3632;42.724;23.298;2023-06-04T10:42:38;95393.66;;;21.96;61.54
7182;BME280;3632;42.724;23.298;2023-06-04T10:45:07;95739.75;;;24.02;62.60
7182;BME280;3632;42.724;23.298;2023-06-04T10:47:36;95744.22;;;24.08;64.82
7182;BME280;3632;42.724;23.298;2023-06-04T10:50:07;95720.72;;;24.02;62.50
7182;BME280;3632;42.724;23.298;2023-06-04T10:52:35;95673.94;;;23.81;60.83
7182;BME280;3632;42.724;23.298;2023-06-04T10:55:04;95651.44;;;23.66;64.40
7182;BME280;3632;42.724;23.298;2023-06-04T10:57:32;95729.66;;;23.86;63.84
7182;BME280;3632;42.724;23.298;2023-06-04T11:00:00;95727.06;;;23.58;63.76
7182;BME280;3632;42.724;23.298;2023-06-04T11:02:31;95728.63;;;23.53;64.65
7182;BME280;3632;42.724;23.298;2023-06-04T11:05:03;95264.75;;;20.76;65.77
7182;BME280;3632;42.724;23.298;2023-06-04T11:07:41;95729.34;;;23.47;66.29
7182;BME280;3632;42.724;23.298;2023-06-04T11:10:10;95725.50;;;23.43;64.38
7182;BME280;3632;42.724;23.298;2023-06-04T11:12:42;95723.22;;;23.33;66.03
7182;BME280;3632;42.724;23.298;2023-06-04T11:15:09;95601.44;;;22.09;67.08
7182;BME280;3632;42.724;23.298;2023-06-04T11:17:36;95538.88;;;21.68;67.64
7182;BME280;3632;42.724;23.298;2023-06-04T11:20:15;95730.41;;;23.31;66.17
7182;BME280;3632;42.724;23.298;2023-06-04T11:22:42;95660.31;;;22.74;65.87
7182;BME280;3632;42.724;23.298;2023-06-04T11:25:17;95511.19;;;21.25;65.46
7182;BME280;3632;42.724;23.298;2023-06-04T11:27:44;95721.81;;;23.09;66.14
7182;BME280;3632;42.724;23.298;2023-06-04T11:30:11;95724.22;;;23.32;66.45
7182;BME280;3632;42.724;23.298;2023-06-04T11:32:39;95672.03;;;23.12;65.16
7182;BME280;3632;42.724;23.298;2023-06-04T11:35:08;95721.19;;;23.50;64.82
7182;BME280;3632;42.724;23.298;2023-06-04T11:37:37;95553.66;;;22.04;66.77
7182;BME280;3632;42.724;23.298;2023-06-04T11:40:15;95721.47;;;23.61;66.91
7182;BME280;3632;42.724;23.298;2023-06-04T11:42:42;95723.03;;;23.56;67.69
7182;BME280;3632;42.724;23.298;2023-06-04T11:45:10;95725.19;;;23.31;68.23
7182;BME280;3632;42.724;23.298;2023-06-04T11:47:37;95636.03;;;22.88;68.39
7182;BME280;3632;42.724;23.298;2023-06-04T11:50:04;95728.19;;;23.28;65.93
7182;BME280;3632;42.724;23.298;2023-06-04T11:52:33;95683.78;;;22.66;67.21
7182;BME280;3632;42.724;23.298;2023-06-04T11:55:00;95723.28;;;23.40;64.80
7182;BME280;3632;42.724;23.298;2023-06-04T11:57:27;95730.53;;;23.72;65.65
7182;BME280;3632;42.724;23.298;2023-06-04T11:59:54;95740.22;;;23.78;65.46
7182;BME280;3632;42.724;23.298;2023-06-04T12:02:21;95727.06;;;23.58;65.41
7182;BME280;3632;42.724;23.298;2023-06-04T12:04:48;95730.69;;;23.64;66.21
7182;BME280;3632;42.724;23.298;2023-06-04T12:07:19;95737.13;;;23.68;66.12
7182;BME280;3632;42.724;23.298;2023-06-04T12:09:50;95574.28;;;22.69;66.06
7182;BME280;3632;42.724;23.298;2023-06-04T12:12:21;95739.13;;;23.66;67.36
7182;BME280;3632;42.724;23.298;2023-06-04T12:14:56;95504.44;;;21.60;66.00
7182;BME280;3632;42.724;23.298;2023-06-04T12:17:23;95735.38;;;23.47;65.98
7182;BME280;3632;42.724;23.298;2023-06-04T12:19:51;95557.19;;;22.39;65.64
7182;BME280;3632;42.724;23.298;2023-06-04T12:22:18;95747.94;;;23.44;66.08
7182;BME280;3632;42.724;23.298;2023-06-04T12:24:47;95549.69;;;21.72;64.52
7182;BME280;3632;42.724;23.298;2023-06-04T12:27:16;95733.28;;;23.43;65.84
7182;BME280;3632;42.724;23.298;2023-06-04T12:29:42;95734.94;;;23.44;66.54
7182;BME280;3632;42.724;23.298;2023-06-04T12:32:10;95726.50;;;23.42;66.09
7182;BME280;3632;42.724;23.298;2023-06-04T12:34:37;95734.31;;;23.42;66.30
7182;BME280;3632;42.724;23.298;2023-06-04T12:37:05;95694.00;;;23.10;67.76
7182;BME280;3632;42.724;23.298;2023-06-04T12:39:33;95721.13;;;23.22;68.34
7182;BME280;3632;42.724;23.298;2023-06-04T12:42:02;95729.97;;;23.28;68.76
7182;BME280;3632;42.724;23.298;2023-06-04T12:44:30;95732.75;;;23.05;67.71
7182;BME280;3632;42.724;23.298;2023-06-04T12:46:57;95729.47;;;22.96;68.44
7182;BME280;3632;42.724;23.298;2023-06-04T12:49:23;95582.28;;;22.10;67.93
7182;BME280;3632;42.724;23.298;2023-06-04T12:51:50;95739.75;;;23.04;67.78
7182;BME280;3632;42.724;23.298;2023-06-04T12:54:17;95658.41;;;22.68;69.90
7182;BME280;3632;42.724;23.298;2023-06-04T12:56:45;95740.63;;;22.90;70.21
7182;BME280;3632;42.724;23.298;2023-06-04T12:59:12;95755.47;;;23.17;68.87
7182;BME280;3632;42.724;23.298;2023-06-04T13:01:40;95729.25;;;23.34;67.91
7182;BME280;3632;42.724;23.298;2023-06-04T13:04:07;95728.75;;;23.73;74.34
7182;BME280;3632;42.724;23.298;2023-06-04T13:06:34;95730.44;;;23.80;70.30
7182;BME280;3632;42.724;23.298;2023-06-04T13:09:02;95725.97;;;23.74;70.14
7182;BME280;3632;42.724;23.298;2023-06-04T13:11:34;95721.66;;;23.60;69.86